createdAt,value
2023-03-24T00:01:46.185Z,12.70
2023-03-24T00:04:13.367Z,12.68
2023-03-24T00:06:40.083Z,13.38
2023-03-24T00:09:06.844Z,13.96
2023-03-24T00:11:36.545Z,14.55
2023-03-24T00:14:03.641Z,14.16
2023-03-24T00:16:30.786Z,14.30
2023-03-24T00:18:57.882Z,14.32
2023-03-24T00:21:25.067Z,14.42
2023-03-24T00:23:52.748Z,14.41
2023-03-24T00:26:19.980Z,15.37
2023-03-24T00:28:48.320Z,15.18
2023-03-24T00:31:16.081Z,15.87
2023-03-24T00:33:44.496Z,15.78
2023-03-24T00:36:12.416Z,16.22
2023-03-24T00:38:40.179Z,15.15
2023-03-24T00:41:10.268Z,15.51
2023-03-24T00:43:39.840Z,14.87
2023-03-24T00:49:46.792Z,12.86
2023-03-24T00:52:36.380Z,13.07
2023-03-24T00:55:06.572Z,11.32
2023-03-24T00:57:33.433Z,10.10
2023-03-24T01:00:21.240Z,9.69
2023-03-24T01:02:49.833Z,9.35
2023-03-24T01:05:17.337Z,9.80
2023-03-24T01:07:44.125Z,9.62
2023-03-24T01:10:15.824Z,9.82
2023-03-24T01:12:43.595Z,10.73
2023-03-24T01:15:14.260Z,11.53
2023-03-24T01:17:41.206Z,11.86
2023-03-24T01:20:11.117Z,11.98
2023-03-24T01:22:39.257Z,12.77
2023-03-24T01:25:07.551Z,14.48
2023-03-24T01:27:34.261Z,13.96
2023-03-24T01:30:01.369Z,14.64
2023-03-24T01:32:29.171Z,14.36
2023-03-24T01:34:55.967Z,13.72
2023-03-24T01:37:22.649Z,14.47
2023-03-24T01:39:50.722Z,14.59
2023-03-24T01:42:23.783Z,13.76
2023-03-24T01:44:53.939Z,13.82
2023-03-24T01:47:20.664Z,13.57
2023-03-24T01:49:51.384Z,13.95
2023-03-24T01:52:24.468Z,13.79
2023-03-24T01:54:54.648Z,13.78
2023-03-24T01:57:33.126Z,13.52
2023-03-24T02:00:01.875Z,13.72
2023-03-24T02:02:28.681Z,13.66
2023-03-24T02:04:58.697Z,13.92
2023-03-24T02:07:51.729Z,14.33
2023-03-24T02:10:22.381Z,14.25
2023-03-24T02:12:49.147Z,13.92
2023-03-24T02:15:16.971Z,13.85
2023-03-24T02:18:11.479Z,13.68
2023-03-24T02:21:02.535Z,13.94
2023-03-24T02:23:44.352Z,14.11
2023-03-24T02:26:46.648Z,13.44
2023-03-24T02:29:55.084Z,13.29
2023-03-24T02:32:50.661Z,13.01
2023-03-24T02:35:43.176Z,13.57
2023-03-24T02:38:34.546Z,12.77
2023-03-24T02:41:06.198Z,12.17
2023-03-24T02:43:44.530Z,13.08
2023-03-24T02:46:21.605Z,13.27
2023-03-24T02:49:12.849Z,13.26
2023-03-24T02:52:07.748Z,12.69
2023-03-24T02:54:56.822Z,13.14
2023-03-24T02:58:00.412Z,12.17
2023-03-24T03:00:41.719Z,13.15
2023-03-24T03:03:19.653Z,12.05
2023-03-24T03:05:51.034Z,12.50
2023-03-24T03:11:17.070Z,12.24
2023-03-24T03:13:55.605Z,12.60
2023-03-24T03:16:24.878Z,12.21
2023-03-24T03:18:55.476Z,12.48
2023-03-24T03:21:24.266Z,13.04
2023-03-24T03:24:03.796Z,13.36
2023-03-24T03:26:31.765Z,13.20
2023-03-24T03:29:00.240Z,14.23
2023-03-24T03:31:35.057Z,13.71
2023-03-24T03:34:27.957Z,14.04
2023-03-24T03:37:23.930Z,13.92
2023-03-24T03:39:59.132Z,13.60
2023-03-24T03:42:26.263Z,14.00
2023-03-24T03:44:54.302Z,14.53
2023-03-24T03:47:21.461Z,14.27
2023-03-24T03:49:51.229Z,14.43
2023-03-24T03:52:20.938Z,15.05
2023-03-24T03:54:48.080Z,14.32
2023-03-24T03:57:14.869Z,14.58
2023-03-24T03:59:41.634Z,14.48
2023-03-24T04:02:37.424Z,13.78
2023-03-24T04:05:28.820Z,13.99
2023-03-24T04:08:23.510Z,13.51
2023-03-24T04:11:28.100Z,13.34
2023-03-24T04:14:07.969Z,14.11
2023-03-24T04:17:20.803Z,14.12
2023-03-24T04:20:09.035Z,14.29
2023-03-24T04:22:55.135Z,14.67
2023-03-24T04:25:29.661Z,15.04
2023-03-24T04:28:19.169Z,14.72
2023-03-24T04:30:51.089Z,14.71
2023-03-24T04:33:28.210Z,14.54
2023-03-24T04:36:10.151Z,14.37
2023-03-24T04:38:36.982Z,14.88
2023-03-24T04:41:03.850Z,14.42
2023-03-24T04:43:32.457Z,14.10
2023-03-24T04:46:00.412Z,14.07
2023-03-24T04:48:27.237Z,13.58
2023-03-24T04:51:01.606Z,13.93
2023-03-24T04:53:31.129Z,14.32
2023-03-24T04:56:10.772Z,14.11
2023-03-24T04:58:38.629Z,13.92
2023-03-24T05:01:08.462Z,14.52
2023-03-24T05:03:37.302Z,13.97
2023-03-24T05:06:04.143Z,13.26
2023-03-24T05:08:32.742Z,13.82
2023-03-24T05:10:59.825Z,13.69
2023-03-24T05:13:26.509Z,13.97
2023-03-24T05:15:56.239Z,13.95
2023-03-24T05:18:24.282Z,13.77
2023-03-24T05:20:51.163Z,14.05
2023-03-24T05:23:18.333Z,14.57
2023-03-24T05:25:48.849Z,14.20
2023-03-24T05:28:15.658Z,14.03
2023-03-24T05:30:43.500Z,14.30
2023-03-24T05:33:10.310Z,14.37
2023-03-24T05:35:37.208Z,14.14
2023-03-24T05:38:04.323Z,13.54
2023-03-24T05:40:34.450Z,14.25
2023-03-24T05:43:01.764Z,14.43
2023-03-24T05:45:28.496Z,14.01
2023-03-24T05:47:55.264Z,14.19
2023-03-24T05:50:25.069Z,14.27
2023-03-24T05:52:52.283Z,13.83
2023-03-24T05:55:19.855Z,14.05
2023-03-24T05:57:47.741Z,14.63
2023-03-24T06:00:15.714Z,14.66
2023-03-24T06:02:44.602Z,14.83
2023-03-24T06:05:14.173Z,14.74
2023-03-24T06:07:44.556Z,15.44
2023-03-24T06:10:11.830Z,15.44
2023-03-24T06:12:38.867Z,15.87
2023-03-24T06:15:07.750Z,15.38
2023-03-24T06:17:35.326Z,15.45
2023-03-24T06:20:02.118Z,15.34
2023-03-24T06:22:30.587Z,15.26
2023-03-24T06:24:58.799Z,14.92
2023-03-24T06:27:26.390Z,14.90
2023-03-24T06:29:54.086Z,13.74
2023-03-24T06:32:20.837Z,12.91
2023-03-24T06:34:47.569Z,12.82
2023-03-24T06:37:14.318Z,12.89
2023-03-24T06:39:41.081Z,12.98
2023-03-24T06:42:08.139Z,12.58
2023-03-24T06:44:34.882Z,12.26
2023-03-24T06:47:04.967Z,12.02
2023-03-24T06:49:35.356Z,11.70
2023-03-24T06:52:04.926Z,11.87
2023-03-24T06:54:31.729Z,11.76
2023-03-24T06:56:59.500Z,11.60
2023-03-24T06:59:26.388Z,11.55
2023-03-24T07:01:53.169Z,10.94
2023-03-24T07:04:20.790Z,11.37
2023-03-24T07:07:02.088Z,11.02
2023-03-24T07:09:34.710Z,11.24
2023-03-24T07:12:02.854Z,11.83
2023-03-24T07:14:29.553Z,11.52
2023-03-24T07:16:57.370Z,11.74
2023-03-24T07:19:24.758Z,11.40
2023-03-24T07:21:51.456Z,11.70
2023-03-24T07:24:18.230Z,11.66
2023-03-24T07:26:46.156Z,11.28
2023-03-24T07:29:12.876Z,11.11
2023-03-24T07:31:40.003Z,10.97
2023-03-24T07:34:07.397Z,10.88
2023-03-24T07:36:37.220Z,11.09
2023-03-24T07:39:04.991Z,10.86
2023-03-24T07:41:31.700Z,10.00
2023-03-24T07:43:58.413Z,10.46
2023-03-24T07:46:25.277Z,10.05
2023-03-24T07:48:51.973Z,9.70
2023-03-24T07:51:18.766Z,9.98
2023-03-24T07:53:48.953Z,10.00
2023-03-24T07:56:16.553Z,9.27
2023-03-24T07:58:43.347Z,9.20
2023-03-24T08:01:10.059Z,8.85
2023-03-24T08:03:37.394Z,8.39
2023-03-24T08:06:04.690Z,8.21
2023-03-24T08:08:32.584Z,8.55
2023-03-24T08:10:59.395Z,8.45
2023-03-24T08:13:26.140Z,7.47
2023-03-24T08:15:52.822Z,7.39
2023-03-24T08:18:21.188Z,7.56
2023-03-24T08:20:49.238Z,7.28
2023-03-24T08:23:16.081Z,7.19
2023-03-24T08:25:42.830Z,7.64
2023-03-24T08:28:09.580Z,7.44
2023-03-24T08:30:39.279Z,7.47
2023-03-24T08:33:06.191Z,7.72
2023-03-24T08:35:34.767Z,7.61
2023-03-24T08:38:01.631Z,7.09
2023-03-24T08:40:29.830Z,7.73
2023-03-24T08:42:58.508Z,7.38
2023-03-24T08:45:26.539Z,7.49
2023-03-24T08:47:55.239Z,7.13
2023-03-24T08:50:23.128Z,7.43
2023-03-24T08:52:50.109Z,7.34
2023-03-24T08:55:17.548Z,7.60
2023-03-24T08:57:44.578Z,7.42
2023-03-24T09:00:12.927Z,7.77
2023-03-24T09:02:40.663Z,8.10
2023-03-24T09:05:08.035Z,8.06
2023-03-24T09:07:35.944Z,8.16
2023-03-24T09:10:02.712Z,7.82
2023-03-24T09:12:32.347Z,8.16
2023-03-24T09:15:00.160Z,8.10
2023-03-24T09:17:27.444Z,8.23
2023-03-24T09:19:55.428Z,8.48
2023-03-24T09:22:22.220Z,8.79
2023-03-24T09:24:48.904Z,8.67
2023-03-24T09:27:17.657Z,9.05
2023-03-24T09:29:44.443Z,9.01
2023-03-24T09:32:12.237Z,8.83
2023-03-24T09:34:39.308Z,8.78
2023-03-24T09:37:07.389Z,8.57
2023-03-24T09:39:37.317Z,8.53
2023-03-24T09:42:21.863Z,8.74
2023-03-24T09:44:50.644Z,9.30
2023-03-24T09:47:59.554Z,9.15
2023-03-24T09:50:39.322Z,8.83
2023-03-24T09:53:09.838Z,9.08
2023-03-24T09:55:37.549Z,9.15
2023-03-24T09:58:06.043Z,9.04
2023-03-24T10:00:33.028Z,9.45
2023-03-24T10:03:14.707Z,9.51
2023-03-24T10:05:47.968Z,9.64
2023-03-24T10:08:41.808Z,8.97
2023-03-24T10:12:00.999Z,8.87
2023-03-24T10:14:44.025Z,8.93
2023-03-24T10:17:25.810Z,8.79
2023-03-24T10:20:11.429Z,8.34
2023-03-24T10:23:19.210Z,8.25
2023-03-24T10:26:32.120Z,8.32
2023-03-24T10:29:23.320Z,8.29
2023-03-24T10:32:06.272Z,8.73
2023-03-24T10:34:33.605Z,9.15
2023-03-24T10:37:02.105Z,8.71
2023-03-24T10:39:41.986Z,8.80
2023-03-24T10:42:19.271Z,8.85
2023-03-24T10:44:47.150Z,8.58
2023-03-24T10:47:15.387Z,8.62
2023-03-24T10:49:59.869Z,9.04
2023-03-24T10:52:27.120Z,8.29
2023-03-24T10:54:58.198Z,7.96
2023-03-24T10:57:26.453Z,7.72
2023-03-24T10:59:57.686Z,8.24
2023-03-24T11:02:31.283Z,7.70
2023-03-24T11:04:59.904Z,7.61
2023-03-24T11:07:37.592Z,7.34
2023-03-24T11:10:07.316Z,7.64
2023-03-24T11:12:35.921Z,6.96
2023-03-24T11:15:29.137Z,6.60
2023-03-24T11:18:17.163Z,6.57
2023-03-24T11:20:45.910Z,6.01
2023-03-24T11:23:20.110Z,5.32
2023-03-24T11:26:16.052Z,5.87
2023-03-24T11:28:46.913Z,5.64
2023-03-24T11:31:14.173Z,5.42
2023-03-24T11:33:47.259Z,5.27
2023-03-24T11:36:52.223Z,4.94
2023-03-24T11:39:25.979Z,4.54
2023-03-24T11:42:11.044Z,5.21
2023-03-24T11:44:47.544Z,5.23
2023-03-24T11:47:32.677Z,4.83
2023-03-24T11:50:11.907Z,5.66
2023-03-24T11:52:53.654Z,5.76
2023-03-24T11:55:59.709Z,5.22
2023-03-24T11:58:38.042Z,5.17
2023-03-24T12:01:12.173Z,5.67
2023-03-24T12:03:43.581Z,7.31
2023-03-24T12:06:35.832Z,4.89
2023-03-24T12:09:18.178Z,4.56
2023-03-24T12:12:26.082Z,4.26
2023-03-24T12:15:28.734Z,4.60
2023-03-24T12:18:15.951Z,3.94
2023-03-24T12:21:14.265Z,3.54
2023-03-24T12:24:00.257Z,3.29
2023-03-24T12:26:30.658Z,3.27
2023-03-24T12:29:37.488Z,3.20
2023-03-24T12:32:18.763Z,3.21
2023-03-24T12:34:56.062Z,3.06
2023-03-24T12:37:46.354Z,2.90
2023-03-24T12:40:56.796Z,2.77
2023-03-24T12:43:43.583Z,2.95
2023-03-24T12:46:47.658Z,2.79
2023-03-24T12:49:34.073Z,4.11
2023-03-24T12:52:27.018Z,4.29
2023-03-24T12:54:58.421Z,3.97
2023-03-24T12:57:26.465Z,3.55
2023-03-24T13:00:11.254Z,3.87
2023-03-24T13:03:01.774Z,4.66
2023-03-24T13:05:32.898Z,4.29
2023-03-24T13:08:02.708Z,4.68
2023-03-24T13:10:30.785Z,4.69
2023-03-24T13:13:27.737Z,4.21
2023-03-24T13:16:01.685Z,4.10
2023-03-24T13:18:33.306Z,4.41
2023-03-24T13:21:17.240Z,5.84
2023-03-24T13:24:00.625Z,5.30
2023-03-24T13:26:32.639Z,4.49
2023-03-24T13:29:23.682Z,23.40
2023-03-24T13:32:00.480Z,26.13
2023-03-24T13:34:30.788Z,6.76
2023-03-24T13:37:10.877Z,6.00
2023-03-24T13:39:38.069Z,6.56
2023-03-24T13:42:06.122Z,5.55
2023-03-24T13:44:42.306Z,4.53
2023-03-24T13:47:16.379Z,6.83
2023-03-24T13:49:55.925Z,6.50
2023-03-24T13:52:32.628Z,8.43
2023-03-24T13:55:00.787Z,8.22
2023-03-24T13:57:27.465Z,7.04
2023-03-24T14:00:03.836Z,7.40
2023-03-24T14:02:30.565Z,6.00
2023-03-24T14:05:30.121Z,4.97
2023-03-24T14:08:13.466Z,5.23
2023-03-24T14:10:42.307Z,4.95
2023-03-24T14:13:12.036Z,4.88
2023-03-24T14:15:55.609Z,4.71
2023-03-24T14:18:26.080Z,4.94
2023-03-24T14:21:08.454Z,5.07
2023-03-24T14:23:48.473Z,4.65
2023-03-24T14:26:37.365Z,4.62
2023-03-24T14:29:04.112Z,4.59
2023-03-24T14:31:34.369Z,4.26
2023-03-24T14:34:12.908Z,4.94
2023-03-24T14:36:44.349Z,5.16
2023-03-24T14:39:26.218Z,4.46
2023-03-24T14:41:53.985Z,4.83
2023-03-24T14:44:58.220Z,4.74
2023-03-24T14:47:45.715Z,5.05
2023-03-24T14:50:18.299Z,5.38
2023-03-24T14:52:48.092Z,4.75
2023-03-24T14:55:16.025Z,4.92
2023-03-24T14:57:44.462Z,5.78
2023-03-24T15:00:20.875Z,5.48
2023-03-24T15:02:52.270Z,4.31
2023-03-24T15:05:29.475Z,5.34
2023-03-24T15:08:09.187Z,4.54
2023-03-24T15:10:48.521Z,4.86
2023-03-24T15:13:50.903Z,7.17
2023-03-24T15:16:22.619Z,7.14
2023-03-24T15:19:05.112Z,7.10
2023-03-24T15:22:08.184Z,9.41
2023-03-24T15:24:36.402Z,6.83
2023-03-24T15:27:24.825Z,6.79
2023-03-24T15:29:57.759Z,9.18
2023-03-24T15:32:24.955Z,6.08
2023-03-24T15:34:56.802Z,5.46
2023-03-24T15:37:33.439Z,5.40
2023-03-24T15:42:41.350Z,12.37
2023-03-24T15:45:35.938Z,7.33
2023-03-24T15:48:08.070Z,6.02
2023-03-24T15:50:39.983Z,5.27
2023-03-24T15:53:22.713Z,5.05
2023-03-24T15:56:13.069Z,4.62
2023-03-24T15:58:56.696Z,4.40
2023-03-24T16:01:27.749Z,4.29
2023-03-24T16:03:55.081Z,4.35
2023-03-24T16:06:29.622Z,4.57
2023-03-24T16:08:59.890Z,3.56
2023-03-24T16:11:26.582Z,3.74
2023-03-24T16:13:57.673Z,3.88
2023-03-24T16:16:28.982Z,2.95
2023-03-24T16:18:56.210Z,3.54
2023-03-24T16:21:27.249Z,2.67
2023-03-24T16:23:57.495Z,2.24
2023-03-24T16:26:35.977Z,2.00
2023-03-24T16:29:24.710Z,2.34
2023-03-24T16:31:53.086Z,1.41
2023-03-24T16:34:21.809Z,1.36
2023-03-24T16:36:49.293Z,1.98
2023-03-24T16:39:17.641Z,1.80
2023-03-24T16:41:47.311Z,1.78
2023-03-24T16:44:14.057Z,1.42
2023-03-24T16:46:40.866Z,1.21
2023-03-24T16:49:08.677Z,4.28
2023-03-24T16:51:35.442Z,8.49
2023-03-24T16:54:04.000Z,11.24
2023-03-24T16:56:31.772Z,13.24
2023-03-24T16:58:58.528Z,8.24
2023-03-24T17:01:30.249Z,5.10
2023-03-24T17:03:58.878Z,7.99
2023-03-24T17:06:27.552Z,1.47
2023-03-24T17:08:54.589Z,0.90
2023-03-24T17:11:33.949Z,0.91
2023-03-24T17:14:01.595Z,0.90
2023-03-24T17:16:28.963Z,0.94
2023-03-24T17:18:55.899Z,1.16
2023-03-24T17:21:23.117Z,1.65
2023-03-24T17:23:50.266Z,2.60
2023-03-24T17:26:19.968Z,4.79
2023-03-24T17:28:46.680Z,2.80
2023-03-24T17:31:16.169Z,2.54
2023-03-24T17:33:44.008Z,1.81
2023-03-24T17:36:15.167Z,2.38
2023-03-24T17:38:42.230Z,2.50
2023-03-24T17:41:09.477Z,1.51
2023-03-24T17:43:37.306Z,1.58
2023-03-24T17:46:05.496Z,3.43
2023-03-24T17:48:32.401Z,6.08
2023-03-24T17:50:59.140Z,4.01
2023-03-24T17:53:28.808Z,3.40
2023-03-24T17:55:59.742Z,2.69
2023-03-24T17:58:27.881Z,2.20
2023-03-24T18:00:54.711Z,2.13
2023-03-24T18:03:21.904Z,2.64
2023-03-24T18:05:53.793Z,4.08
2023-03-24T18:08:20.892Z,2.44
2023-03-24T18:10:53.549Z,1.86
2023-03-24T18:13:20.234Z,2.07
2023-03-24T18:15:48.950Z,2.13
2023-03-24T18:18:16.694Z,2.47
2023-03-24T18:20:46.343Z,2.42
2023-03-24T18:23:13.147Z,6.73
2023-03-24T18:25:40.108Z,3.55
2023-03-24T18:28:06.845Z,3.40
2023-03-24T18:30:33.968Z,3.04
2023-03-24T18:33:00.709Z,2.47
2023-03-24T18:35:27.616Z,2.05
2023-03-24T18:37:54.762Z,1.83
2023-03-24T18:40:22.551Z,1.81
2023-03-24T18:42:49.679Z,2.68
2023-03-24T18:45:17.026Z,3.54
2023-03-24T18:47:47.087Z,2.75
2023-03-24T18:50:17.683Z,2.03
2023-03-24T18:52:47.177Z,2.24
2023-03-24T18:55:14.129Z,2.93
2023-03-24T18:57:42.605Z,4.22
2023-03-24T19:00:10.947Z,3.45
2023-03-24T19:02:37.859Z,2.93
2023-03-24T19:05:05.881Z,2.70
2023-03-24T19:07:33.969Z,4.11
2023-03-24T19:10:01.588Z,4.31
2023-03-24T19:12:29.042Z,3.84
2023-03-24T19:14:56.001Z,4.10
2023-03-24T19:17:22.708Z,4.18
2023-03-24T19:19:52.734Z,3.63
2023-03-24T19:22:21.740Z,2.89
2023-03-24T19:24:49.529Z,2.69
2023-03-24T19:27:16.281Z,2.81
2023-03-24T19:29:43.955Z,2.85
2023-03-24T19:32:10.638Z,2.65
2023-03-24T19:34:38.670Z,2.47
2023-03-24T19:37:05.676Z,2.33
2023-03-24T19:39:32.681Z,2.34
2023-03-24T19:42:00.997Z,2.08
2023-03-24T19:44:27.798Z,1.76
2023-03-24T19:46:55.988Z,1.93
2023-03-24T19:49:24.462Z,2.02
2023-03-24T19:51:51.161Z,1.97
2023-03-24T19:54:18.883Z,2.03
2023-03-24T19:56:45.991Z,2.03
2023-03-24T19:59:12.699Z,2.21
2023-03-24T20:01:39.879Z,2.03
2023-03-24T20:04:07.422Z,2.00
2023-03-24T20:06:36.022Z,2.06
2023-03-24T20:09:07.829Z,2.74
2023-03-24T20:11:34.653Z,2.16
2023-03-24T20:14:14.649Z,2.09
2023-03-24T20:16:45.370Z,1.91
2023-03-24T20:19:12.281Z,1.83
2023-03-24T20:21:40.383Z,1.69
2023-03-24T20:24:08.095Z,1.66
2023-03-24T20:26:35.960Z,1.54
2023-03-24T20:29:05.558Z,1.48
2023-03-24T20:31:33.369Z,1.52
2023-03-24T20:34:00.578Z,2.86
2023-03-24T20:36:30.239Z,2.10
2023-03-24T20:38:56.980Z,1.56
2023-03-24T20:41:23.750Z,1.86
2023-03-24T20:43:53.358Z,1.74
2023-03-24T20:46:20.121Z,1.58
2023-03-24T20:48:46.877Z,1.77
2023-03-24T20:51:14.769Z,1.77
2023-03-24T20:53:44.540Z,1.54
2023-03-24T20:56:11.997Z,1.61
2023-03-24T20:58:39.191Z,1.59
2023-03-24T21:01:09.062Z,1.63
2023-03-24T21:03:36.971Z,1.87
2023-03-24T21:06:07.897Z,3.39
2023-03-24T21:08:37.958Z,4.15
2023-03-24T21:11:05.878Z,2.99
2023-03-24T21:16:10.053Z,2.41
2023-03-24T21:18:40.215Z,2.19
2023-03-24T21:21:07.107Z,2.41
2023-03-24T21:23:36.677Z,2.49
2023-03-24T21:26:04.429Z,2.65
2023-03-24T21:28:32.789Z,2.36
2023-03-24T21:31:09.708Z,2.62
2023-03-24T21:33:36.486Z,2.68
2023-03-24T21:36:04.459Z,2.57
2023-03-24T21:38:31.982Z,2.49
2023-03-24T21:40:59.015Z,2.41
2023-03-24T21:43:32.699Z,3.16
2023-03-24T21:46:02.278Z,2.97
2023-03-24T21:48:31.054Z,2.73
2023-03-24T21:50:58.112Z,2.37
2023-03-24T21:53:25.213Z,2.35
2023-03-24T21:55:53.741Z,2.78
2023-03-24T21:58:21.984Z,3.05
2023-03-24T22:00:49.560Z,3.10
2023-03-24T22:03:19.255Z,2.93
2023-03-24T22:05:46.438Z,3.40
2023-03-24T22:08:13.350Z,2.82
2023-03-24T22:10:41.139Z,2.26
2023-03-24T22:13:07.891Z,2.08
2023-03-24T22:15:37.621Z,2.17
2023-03-24T22:18:05.600Z,2.03
2023-03-24T22:20:33.027Z,1.78
2023-03-24T22:23:00.231Z,1.94
2023-03-24T22:25:28.646Z,1.92
2023-03-24T22:27:55.385Z,1.91
2023-03-24T22:30:22.767Z,1.92
2023-03-24T22:32:50.805Z,1.86
2023-03-24T22:35:18.320Z,1.71
2023-03-24T22:37:45.221Z,1.85
2023-03-24T22:40:12.031Z,1.67
2023-03-24T22:42:40.208Z,1.75
2023-03-24T22:45:13.038Z,1.91
2023-03-24T22:47:42.734Z,1.97
2023-03-24T22:50:11.101Z,2.04
2023-03-24T22:52:39.178Z,2.28
2023-03-24T22:55:08.030Z,2.03
2023-03-24T22:57:34.984Z,2.36
2023-03-24T23:00:04.369Z,2.09
2023-03-24T23:02:31.850Z,2.27
2023-03-24T23:12:11.439Z,2.20
2023-03-24T23:14:38.593Z,2.26
2023-03-24T23:17:05.603Z,2.31
2023-03-24T23:19:32.313Z,2.16
2023-03-24T23:21:59.935Z,2.38
2023-03-24T23:24:27.204Z,2.46
2023-03-24T23:26:54.914Z,1.68
2023-03-24T23:29:25.692Z,1.56
2023-03-24T23:31:53.035Z,1.40
2023-03-24T23:34:19.914Z,1.22
2023-03-24T23:37:04.413Z,1.13
2023-03-24T23:39:32.178Z,1.03
2023-03-24T23:41:58.878Z,0.99
2023-03-24T23:44:27.611Z,0.89
2023-03-24T23:46:55.042Z,0.93
2023-03-24T23:49:24.996Z,0.98
2023-03-24T23:51:55.084Z,1.01
2023-03-24T23:54:22.143Z,1.10
2023-03-24T23:56:49.959Z,0.88
2023-03-24T23:59:17.360Z,0.95
